Time;durP1;ratioP1;P1;durP2;ratioP2;P2;SDS_P1;SDS_P2;PMS_P1;PMS_P2;Temp;Humidity;BMP_temperature;BMP_pressure;BME280_temperature;BME280_humidity;BME280_pressure;Samples;Min_cycle;Max_cycle;Signal;HPM_P1;HPM_P2
2023/10/20 00:01:45;;;;;;;16.43;7.63;;;8.40;99.90;;;;;;5003513;28;20076;-70
2023/10/20 00:04:12;;;;;;;12.63;6.80;;;8.40;99.90;;;;;;5026299;28;20640;-70
2023/10/20 00:06:39;;;;;;;13.57;7.15;;;8.50;99.90;;;;;;5003913;28;20037;-70
2023/10/20 00:09:06;;;;;;;12.55;7.28;;;8.50;99.90;;;;;;5027175;28;20075;-70
2023/10/20 00:11:38;;;;;;;15.85;7.20;;;8.40;99.90;;;;;;5024048;28;20041;-70
2023/10/20 00:14:04;;;;;;;15.30;7.03;;;8.40;99.90;;;;;;5025654;28;20053;-70
2023/10/20 00:16:30;;;;;;;14.37;6.97;;;8.40;99.90;;;;;;5014303;28;20049;-70
2023/10/20 00:18:56;;;;;;;13.82;7.10;;;8.50;99.90;;;;;;5020945;28;20471;-70
2023/10/20 00:21:24;;;;;;;19.08;7.18;;;8.40;99.90;;;;;;5023951;28;20455;-71
2023/10/20 00:23:49;;;;;;;12.07;6.75;;;8.40;99.90;;;;;;5006231;28;20042;-71
2023/10/20 00:26:15;;;;;;;15.40;7.90;;;8.40;99.90;;;;;;5014640;28;20173;-70
2023/10/20 00:28:47;;;;;;;13.00;6.35;;;8.40;99.90;;;;;;5026929;28;20049;-70
2023/10/20 00:31:12;;;;;;;11.98;6.22;;;8.40;99.90;;;;;;5009381;28;20099;-70
2023/10/20 00:33:40;;;;;;;14.60;7.07;;;8.40;99.90;;;;;;5023353;28;20034;-70
2023/10/20 00:36:08;;;;;;;13.60;6.93;;;8.40;99.90;;;;;;5024750;28;20497;-70
2023/10/20 00:38:33;;;;;;;14.65;7.57;;;8.40;99.90;;;;;;5015187;28;20038;-70
2023/10/20 00:41:05;;;;;;;14.10;7.47;;;8.30;99.90;;;;;;5006199;28;20029;-70
2023/10/20 00:43:35;;;;;;;14.32;7.55;;;8.40;99.90;;;;;;5026814;28;20049;-70
2023/10/20 00:46:04;;;;;;;16.88;7.82;;;8.30;99.90;;;;;;5026121;28;20041;-70
2023/10/20 00:48:31;;;;;;;15.57;7.90;;;8.40;99.90;;;;;;5028744;28;20045;-70
2023/10/20 00:50:57;;;;;;;16.52;6.82;;;8.40;99.90;;;;;;5020000;28;20050;-70
2023/10/20 00:53:23;;;;;;;16.73;7.60;;;8.40;99.90;;;;;;5022142;28;20124;-71
2023/10/20 00:55:50;;;;;;;15.90;8.65;;;8.40;99.90;;;;;;5006772;28;20147;-70
2023/10/20 00:58:16;;;;;;;17.70;8.20;;;8.30;99.90;;;;;;5031379;28;20521;-70
2023/10/20 01:00:44;;;;;;;16.92;7.97;;;8.40;99.90;;;;;;5031894;28;20038;-71
2023/10/20 01:03:10;;;;;;;15.23;7.37;;;8.30;99.90;;;;;;5031368;28;20457;-70
2023/10/20 01:05:37;;;;;;;16.85;8.23;;;8.30;99.90;;;;;;5027019;28;20048;-70
2023/10/20 01:08:02;;;;;;;17.02;8.10;;;8.40;99.90;;;;;;5030425;28;20528;-70
2023/10/20 01:10:28;;;;;;;20.02;8.35;;;8.30;99.90;;;;;;5026848;28;20120;-70
2023/10/20 01:12:54;;;;;;;15.77;8.47;;;8.30;99.90;;;;;;5027668;28;20056;-70
2023/10/20 01:15:19;;;;;;;16.10;7.60;;;8.30;99.90;;;;;;5032589;28;20038;-70
2023/10/20 01:17:48;;;;;;;16.70;7.93;;;8.30;99.90;;;;;;5032393;28;20487;-70
2023/10/20 01:20:13;;;;;;;18.38;8.43;;;8.30;99.90;;;;;;5028732;28;20045;-70
2023/10/20 01:22:40;;;;;;;17.67;8.53;;;8.30;99.90;;;;;;5016146;28;20037;-71
2023/10/20 01:25:12;;;;;;;19.88;9.68;;;8.30;99.90;;;;;;5013663;28;20494;-70
2023/10/20 01:27:37;;;;;;;19.27;8.98;;;8.30;99.90;;;;;;5030920;28;20052;-71
2023/10/20 01:30:04;;;;;;;21.43;8.70;;;8.30;99.90;;;;;;5030884;28;20033;-71
2023/10/20 01:32:30;;;;;;;;;;;8.30;99.90;;;;;;5007996;28;20414;-70
2023/10/20 01:34:55;;;;;;;18.83;7.93;;;8.30;99.90;;;;;;5029108;28;19917;-70
2023/10/20 01:37:23;;;;;;;19.43;8.67;;;8.30;99.90;;;;;;5021519;28;20125;-70
2023/10/20 01:39:51;;;;;;;21.00;9.15;;;8.30;99.90;;;;;;5022939;28;20034;-70
2023/10/20 01:42:21;;;;;;;18.70;8.45;;;8.30;99.90;;;;;;5031346;28;20037;-70
2023/10/20 01:44:47;;;;;;;20.92;8.75;;;8.30;99.90;;;;;;5031638;28;20045;-70
2023/10/20 01:47:12;;;;;;;21.00;9.43;;;8.30;99.90;;;;;;5028400;28;20498;-70
2023/10/20 01:49:38;;;;;;;21.30;8.73;;;8.30;99.90;;;;;;5031329;28;20048;-70
2023/10/20 01:52:06;;;;;;;19.13;9.00;;;8.30;99.90;;;;;;5023282;28;20064;-70
2023/10/20 01:54:32;;;;;;;20.80;9.43;;;8.30;99.90;;;;;;5015744;28;20296;-70
2023/10/20 01:56:57;;;;;;;19.27;9.30;;;8.30;99.90;;;;;;5028660;28;20041;-75
2023/10/20 01:59:26;;;;;;;20.63;8.73;;;8.30;99.90;;;;;;5022168;28;20037;-69
2023/10/20 02:01:51;;;;;;;21.77;9.65;;;8.30;99.90;;;;;;5022223;28;20041;-70
2023/10/20 02:04:17;;;;;;;22.87;9.57;;;8.30;99.90;;;;;;5027390;28;20410;-71
2023/10/20 02:06:43;;;;;;;24.58;10.38;;;8.30;99.90;;;;;;5021078;28;20513;-70
2023/10/20 02:09:09;;;;;;;24.27;9.45;;;8.30;99.90;;;;;;5021610;28;20133;-71
2023/10/20 02:11:36;;;;;;;19.10;9.77;;;8.30;99.90;;;;;;5025933;28;20124;-70
2023/10/20 02:14:03;;;;;;;21.52;9.85;;;8.30;99.90;;;;;;5026776;28;20456;-71
2023/10/20 02:16:31;;;;;;;22.38;9.27;;;8.30;99.90;;;;;;5016153;28;20042;-70
2023/10/20 02:18:57;;;;;;;21.33;9.87;;;8.30;99.90;;;;;;5015692;28;20124;-70
2023/10/20 02:21:23;;;;;;;22.65;9.38;;;8.30;99.90;;;;;;5021034;28;20049;-70
2023/10/20 02:23:48;;;;;;;19.00;8.53;;;8.20;99.90;;;;;;5025452;28;20049;-71
2023/10/20 02:26:16;;;;;;;25.97;9.53;;;8.20;99.90;;;;;;5025230;28;20037;-70
2023/10/20 02:28:44;;;;;;;20.30;9.57;;;8.30;99.90;;;;;;5010173;28;20037;-72
2023/10/20 02:31:14;;;;;;;22.85;9.77;;;8.30;99.90;;;;;;5006115;28;20046;-70
2023/10/20 02:33:44;;;;;;;21.17;10.07;;;8.30;99.90;;;;;;5020993;28;20397;-70
2023/10/20 02:36:16;;;;;;;20.90;8.90;;;8.30;99.90;;;;;;5022637;28;20123;-70
2023/10/20 02:38:42;;;;;;;20.77;10.13;;;8.30;99.90;;;;;;5022086;28;20042;-70
2023/10/20 02:41:10;;;;;;;23.37;9.07;;;8.30;99.90;;;;;;5021507;28;20512;-69
2023/10/20 02:43:36;;;;;;;19.10;9.75;;;8.30;99.90;;;;;;5020293;28;20088;-70
2023/10/20 02:46:02;;;;;;;19.77;9.18;;;8.30;99.90;;;;;;5022139;28;20041;-70
2023/10/20 02:48:30;;;;;;;20.52;9.40;;;8.30;99.90;;;;;;5028829;28;20041;-69
2023/10/20 02:50:56;;;;;;;17.88;8.65;;;8.30;99.90;;;;;;5020354;28;20073;-70
2023/10/20 02:53:22;;;;;;;20.77;8.20;;;8.30;99.90;;;;;;5011194;28;20072;-70
2023/10/20 02:55:50;;;;;;;18.27;8.43;;;8.30;99.90;;;;;;5025750;28;20037;-69
2023/10/20 02:58:19;;;;;;;24.75;9.60;;;8.30;99.90;;;;;;5021304;28;20050;-70
2023/10/20 03:00:50;;;;;;;17.27;8.45;;;8.30;99.90;;;;;;5019197;28;20318;-70
2023/10/20 03:03:18;;;;;;;22.98;9.82;;;8.30;99.90;;;;;;5027217;28;20939;-69
2023/10/20 03:05:45;;;;;;;19.27;9.23;;;8.30;99.90;;;;;;5024567;28;20048;-70
2023/10/20 03:08:11;;;;;;;16.73;7.95;;;8.30;99.90;;;;;;5027775;28;20053;-70
2023/10/20 03:10:37;;;;;;;18.13;8.18;;;8.30;99.90;;;;;;5018415;28;20041;-69
2023/10/20 03:13:04;;;;;;;20.27;7.82;;;8.30;99.90;;;;;;5017666;28;20060;-69
2023/10/20 03:15:31;;;;;;;19.95;8.90;;;8.30;99.90;;;;;;5008453;28;20379;-69
2023/10/20 03:17:58;;;;;;;19.85;8.65;;;8.30;99.90;;;;;;5026161;28;20057;-70
2023/10/20 03:20:28;;;;;;;18.85;8.80;;;8.30;99.90;;;;;;5025717;28;20445;-70
2023/10/20 03:22:57;;;;;;;18.48;8.00;;;8.30;99.90;;;;;;5007612;28;20064;-70
2023/10/20 03:25:26;;;;;;;15.20;8.63;;;8.30;99.90;;;;;;5008933;28;20085;-69
2023/10/20 03:27:54;;;;;;;23.63;9.00;;;8.30;99.90;;;;;;4977291;28;20049;-70
2023/10/20 03:30:19;;;;;;;16.13;7.53;;;8.30;99.90;;;;;;5020576;28;20498;-69
2023/10/20 03:32:49;;;;;;;18.23;8.67;;;8.30;99.90;;;;;;5028753;28;20061;-70
2023/10/20 03:35:16;;;;;;;18.60;8.02;;;8.30;99.90;;;;;;5027619;28;20474;-70
2023/10/20 03:37:42;;;;;;;16.93;7.77;;;8.30;99.90;;;;;;5028666;28;20084;-69
2023/10/20 03:40:16;;;;;;;18.33;8.27;;;8.30;99.90;;;;;;5005578;28;20045;-69
2023/10/20 03:42:43;;;;;;;21.40;8.50;;;8.30;99.90;;;;;;5016192;28;20034;-69
2023/10/20 03:45:10;;;;;;;14.95;7.63;;;8.30;99.90;;;;;;5017923;28;20050;-70
2023/10/20 03:47:39;;;;;;;17.33;9.15;;;8.30;99.90;;;;;;5006834;28;20042;-70
2023/10/20 03:50:14;;;;;;;17.75;8.23;;;8.20;99.90;;;;;;5017758;28;20041;-70
2023/10/20 03:52:41;;;;;;;14.82;8.13;;;8.20;99.90;;;;;;5022764;28;20553;-70
2023/10/20 03:55:08;;;;;;;20.77;9.15;;;8.20;99.90;;;;;;5020229;28;20084;-70
2023/10/20 03:57:34;;;;;;;19.35;8.32;;;8.20;99.90;;;;;;5022393;28;20038;-70
2023/10/20 04:00:15;;;;;;;19.23;8.60;;;8.20;99.90;;;;;;5027780;28;20068;-69
2023/10/20 04:02:41;;;;;;;17.60;8.43;;;8.20;99.90;;;;;;5020164;28;20041;-69
2023/10/20 04:05:07;;;;;;;17.73;8.48;;;8.20;99.90;;;;;;5014816;28;20144;-69
2023/10/20 04:07:33;;;;;;;19.42;8.20;;;8.20;99.90;;;;;;5020825;28;20050;-70
2023/10/20 04:09:59;;;;;;;20.53;8.93;;;8.20;99.90;;;;;;5040340;28;20049;-70
2023/10/20 04:12:27;;;;;;;14.45;7.95;;;8.20;99.90;;;;;;5024235;28;20450;-69
2023/10/20 04:14:55;;;;;;;18.17;8.63;;;8.10;99.90;;;;;;5019950;28;20054;-69
2023/10/20 04:17:21;;;;;;;16.55;8.57;;;8.20;99.90;;;;;;5021763;28;20045;-70
2023/10/20 04:19:47;;;;;;;17.87;8.37;;;8.20;99.90;;;;;;5015581;28;20053;-70
2023/10/20 04:22:16;;;;;;;22.17;8.53;;;8.20;99.90;;;;;;5028283;28;20124;-70
2023/10/20 04:24:44;;;;;;;18.63;8.85;;;8.10;99.90;;;;;;5023973;28;20080;-70
2023/10/20 04:27:39;;;;;;;17.55;8.52;;;8.10;99.90;;;;;;5027236;28;20176;-70
2023/10/20 05:02:43;;;;;;;13.82;6.40;;;8.00;99.90;;;;;;5023652;28;20126;-69
2023/10/20 05:08:00;;;;;;;12.10;5.85;;;8.00;99.90;;;;;;5017390;28;20498;-69
2023/10/20 05:10:29;;;;;;;13.10;6.80;;;8.00;99.90;;;;;;5024354;28;20063;-70
2023/10/20 05:12:54;;;;;;;13.45;6.30;;;8.00;99.90;;;;;;5028303;28;20045;-70
2023/10/20 05:15:22;;;;;;;12.35;6.55;;;8.00;99.90;;;;;;5015170;28;20037;-69
2023/10/20 05:17:53;;;;;;;12.93;6.70;;;8.00;99.90;;;;;;5020801;28;20490;-70
2023/10/20 05:20:21;;;;;;;11.85;6.28;;;8.00;99.90;;;;;;5027130;28;20034;-69
2023/10/20 05:22:48;;;;;;;13.05;6.43;;;8.00;99.90;;;;;;5010995;28;20494;-70
2023/10/20 05:25:17;;;;;;;11.40;6.15;;;8.00;99.90;;;;;;5031701;28;20048;-70
2023/10/20 05:27:43;;;;;;;14.38;7.00;;;8.00;99.90;;;;;;5023341;28;20366;-69
2023/10/20 05:30:09;;;;;;;12.43;6.57;;;8.00;99.90;;;;;;5018762;28;20046;-70
2023/10/20 05:32:37;;;;;;;10.82;5.45;;;8.00;99.90;;;;;;5016212;28;20064;-70
2023/10/20 05:35:04;;;;;;;11.77;5.97;;;8.00;99.90;;;;;;5020790;28;20467;-70
2023/10/20 05:37:30;;;;;;;10.10;6.07;;;7.90;99.90;;;;;;5021334;28;20124;-70
2023/10/20 05:39:56;;;;;;;10.48;6.05;;;8.00;99.90;;;;;;4998799;28;20053;-70
2023/10/20 05:42:22;;;;;;;9.30;5.40;;;8.00;99.90;;;;;;5023084;28;20045;-69
2023/10/20 05:47:34;;;;;;;13.18;4.85;;;8.00;99.90;;;;;;5027746;28;20073;-69
2023/10/20 05:50:01;;;;;;;7.83;4.80;;;8.00;99.90;;;;;;5011925;28;20087;-70
2023/10/20 05:52:30;;;;;;;11.70;5.35;;;8.00;99.90;;;;;;5022634;28;20195;-70
2023/10/20 05:54:59;;;;;;;10.10;5.00;;;8.00;99.90;;;;;;5020223;28;20168;-70
2023/10/20 05:57:25;;;;;;;7.97;4.95;;;8.10;99.90;;;;;;5019472;28;20037;-70
2023/10/20 05:59:54;;;;;;;10.07;4.97;;;8.00;99.90;;;;;;5046013;28;20037;-70
2023/10/20 06:02:19;;;;;;;10.50;5.30;;;8.00;99.90;;;;;;5029485;28;20124;-69
2023/10/20 06:04:48;;;;;;;9.80;4.53;;;8.00;99.90;;;;;;5026085;28;20175;-69
2023/10/20 06:07:16;;;;;;;8.35;4.90;;;8.10;99.90;;;;;;5022380;28;20045;-71
2023/10/20 06:09:44;;;;;;;9.23;4.70;;;8.00;99.90;;;;;;5031044;28;20379;-70
2023/10/20 06:12:10;;;;;;;8.82;4.22;;;8.10;99.90;;;;;;5021990;28;20121;-73
2023/10/20 06:14:38;;;;;;;9.43;4.63;;;8.00;99.90;;;;;;5028627;28;20168;-74
2023/10/20 06:17:04;;;;;;;12.07;5.32;;;8.00;99.90;;;;;;5014934;28;20052;-74
2023/10/20 06:19:31;;;;;;;8.43;4.63;;;8.00;99.90;;;;;;5025359;28;20034;-72
2023/10/20 06:21:57;;;;;;;8.95;5.18;;;8.00;99.90;;;;;;5019975;28;20220;-73
2023/10/20 06:24:22;;;;;;;11.13;4.80;;;8.10;99.90;;;;;;5026530;28;20608;-72
2023/10/20 06:26:48;;;;;;;9.07;4.30;;;8.10;99.90;;;;;;5018734;28;20041;-72
2023/10/20 06:31:51;;;;;;;9.18;4.30;;;8.10;99.90;;;;;;5010558;28;20046;-72
2023/10/20 06:36:48;;;;;;;5.40;3.37;;;8.10;99.90;;;;;;5020144;28;20048;-70
2023/10/20 06:39:15;;;;;;;7.82;3.90;;;8.10;99.90;;;;;;5013007;28;20501;-71
2023/10/20 06:41:41;;;;;;;9.70;3.67;;;8.10;99.90;;;;;;5030773;28;20041;-74
2023/10/20 06:44:09;;;;;;;7.75;3.97;;;8.10;99.90;;;;;;5028070;28;20049;-74
2023/10/20 06:46:35;;;;;;;5.70;3.60;;;8.20;99.90;;;;;;5017367;28;20103;-75
2023/10/20 06:49:01;;;;;;;9.40;4.37;;;8.10;99.90;;;;;;5022422;28;20490;-72
2023/10/20 06:51:27;;;;;;;6.88;3.53;;;8.20;99.90;;;;;;5009384;28;20057;-73
2023/10/20 06:53:52;;;;;;;5.53;3.47;;;8.20;99.90;;;;;;5011022;28;20456;-74
2023/10/20 06:56:20;;;;;;;7.03;3.50;;;8.20;99.90;;;;;;5026595;28;20517;-72
2023/10/20 06:58:47;;;;;;;9.13;3.80;;;8.20;99.90;;;;;;5016958;28;20045;-72
2023/10/20 07:01:13;;;;;;;;;;;8.20;99.90;;;;;;5017874;28;20048;-71
2023/10/20 07:03:38;;;;;;;6.88;3.10;;;8.30;99.90;;;;;;5022119;28;19921;-71
2023/10/20 07:06:07;;;;;;;4.53;2.90;;;8.20;99.90;;;;;;5021805;28;20046;-73
2023/10/20 07:08:33;;;;;;;5.85;2.60;;;8.20;99.90;;;;;;5019073;28;20498;-70
2023/10/20 07:11:02;;;;;;;5.38;3.05;;;8.20;99.90;;;;;;5024632;28;20549;-71
2023/10/20 07:13:28;;;;;;;6.40;2.92;;;8.20;99.90;;;;;;5017420;28;20045;-71
2023/10/20 07:15:57;;;;;;;5.40;2.77;;;8.20;99.90;;;;;;5011927;28;20046;-70
2023/10/20 07:18:23;;;;;;;5.60;2.85;;;8.20;99.90;;;;;;5015743;28;20397;-71
2023/10/20 07:20:49;;;;;;;8.45;2.72;;;8.20;99.90;;;;;;5003918;28;20512;-71
2023/10/20 07:23:16;;;;;;;9.50;2.90;;;8.20;99.90;;;;;;5013607;28;20085;-71
2023/10/20 07:25:42;;;;;;;7.53;2.90;;;8.20;99.90;;;;;;5014947;28;20040;-70
2023/10/20 07:28:08;;;;;;;6.40;2.85;;;8.20;99.90;;;;;;5020616;28;20130;-71
2023/10/20 07:30:34;;;;;;;6.57;2.60;;;8.20;99.90;;;;;;5019508;28;20077;-71
2023/10/20 07:33:00;;;;;;;5.27;2.67;;;8.10;99.90;;;;;;5017746;28;20141;-71
2023/10/20 07:35:26;;;;;;;3.42;1.98;;;8.10;99.90;;;;;;5008512;28;20037;-71
2023/10/20 07:37:51;;;;;;;4.77;2.33;;;8.20;99.90;;;;;;5014688;28;20050;-71
2023/10/20 07:40:18;;;;;;;4.67;2.00;;;8.20;99.90;;;;;;5008297;28;20337;-71
2023/10/20 07:42:45;;;;;;;4.07;1.83;;;8.20;99.90;;;;;;5012256;28;20069;-71
2023/10/20 07:45:12;;;;;;;4.22;1.80;;;8.10;99.90;;;;;;5019283;28;20057;-71
2023/10/20 07:47:38;;;;;;;3.63;1.95;;;8.10;99.90;;;;;;5015656;28;20405;-71
2023/10/20 07:50:06;;;;;;;3.08;1.50;;;8.10;99.90;;;;;;5016418;28;20049;-75
2023/10/20 07:52:31;;;;;;;3.85;1.20;;;8.10;99.90;;;;;;5001725;28;20048;-73
2023/10/20 07:54:57;;;;;;;2.83;1.53;;;8.10;99.90;;;;;;5007950;28;20049;-73
2023/10/20 07:57:24;;;;;;;2.80;1.70;;;8.10;99.90;;;;;;5018066;28;20383;-72
2023/10/20 07:59:50;;;;;;;2.95;1.45;;;8.10;99.90;;;;;;5020262;28;20084;-72
2023/10/20 08:02:15;;;;;;;3.07;1.57;;;8.10;99.90;;;;;;5026380;28;20295;-71
2023/10/20 08:04:41;;;;;;;3.07;1.50;;;8.10;99.90;;;;;;5025262;28;20041;-70
2023/10/20 08:07:09;;;;;;;3.72;1.02;;;8.10;99.90;;;;;;5014632;28;20108;-71
2023/10/20 08:09:36;;;;;;;2.95;1.45;;;8.00;99.90;;;;;;5015880;28;20049;-71
2023/10/20 08:12:02;;;;;;;2.78;1.70;;;8.00;99.90;;;;;;5018861;28;20128;-71
2023/10/20 08:14:28;;;;;;;4.43;1.08;;;7.90;99.90;;;;;;5019276;28;20048;-71
2023/10/20 08:16:54;;;;;;;3.47;1.38;;;8.00;99.90;;;;;;5023769;28;20045;-71
2023/10/20 08:19:20;;;;;;;2.45;1.42;;;8.00;99.90;;;;;;5021038;28;20056;-71
2023/10/20 08:21:46;;;;;;;5.18;1.48;;;7.90;99.90;;;;;;5023388;28;20041;-71
2023/10/20 08:24:13;;;;;;;3.47;1.63;;;8.00;99.90;;;;;;5010418;28;20053;-71
2023/10/20 08:26:39;;;;;;;4.13;1.50;;;7.90;99.90;;;;;;5015545;28;20498;-71
2023/10/20 08:29:06;;;;;;;5.05;1.50;;;7.90;99.90;;;;;;5018795;28;20049;-71
2023/10/20 08:31:32;;;;;;;2.50;1.17;;;7.90;99.90;;;;;;5021135;28;20089;-71
2023/10/20 08:33:58;;;;;;;3.58;1.45;;;7.90;99.90;;;;;;5020554;28;20133;-71
2023/10/20 08:36:24;;;;;;;1.83;0.95;;;7.90;99.90;;;;;;5015529;28;20417;-71
2023/10/20 08:38:51;;;;;;;2.80;1.20;;;7.90;99.90;;;;;;5012214;28;20033;-71
2023/10/20 08:41:22;;;;;;;3.97;1.33;;;7.90;99.90;;;;;;5018093;28;20172;-71
2023/10/20 08:43:48;;;;;;;2.55;1.60;;;7.90;99.90;;;;;;5015506;28;20054;-72
2023/10/20 08:46:16;;;;;;;3.42;1.33;;;7.90;99.90;;;;;;5015439;28;20046;-70
2023/10/20 08:48:47;;;;;;;1.70;0.82;;;7.90;99.90;;;;;;5011756;28;20276;-70
2023/10/20 08:51:15;;;;;;;1.92;1.10;;;7.90;99.90;;;;;;5012232;28;20037;-70
2023/10/20 08:53:44;;;;;;;2.60;1.33;;;7.90;99.90;;;;;;5008857;28;20583;-70
2023/10/20 08:56:14;;;;;;;2.42;1.20;;;7.80;99.90;;;;;;5016414;28;20065;-70
2023/10/20 08:58:44;;;;;;;2.10;1.27;;;7.90;99.90;;;;;;5021065;28;20480;-70
2023/10/20 09:01:09;;;;;;;1.98;1.20;;;7.90;99.90;;;;;;5000531;28;20045;-70
2023/10/20 09:03:39;;;;;;;4.33;1.53;;;7.80;99.90;;;;;;5017133;28;20053;-71
2023/10/20 09:06:06;;;;;;;4.07;1.23;;;7.80;99.90;;;;;;5015151;28;20053;-71
2023/10/20 09:08:32;;;;;;;2.95;1.30;;;7.80;99.90;;;;;;5019804;28;20046;-71
2023/10/20 09:10:58;;;;;;;7.43;1.90;;;7.80;99.90;;;;;;5013455;28;20057;-71
2023/10/20 09:13:34;;;;;;;3.77;1.83;;;7.80;99.90;;;;;;5013314;28;20049;-70
2023/10/20 09:16:01;;;;;;;2.72;1.40;;;7.80;99.90;;;;;;5013075;28;20096;-71
2023/10/20 09:18:26;;;;;;;3.00;1.02;;;7.80;99.90;;;;;;5009937;28;20042;-71
2023/10/20 09:21:00;;;;;;;3.13;1.30;;;7.80;99.90;;;;;;5011146;28;20093;-70
2023/10/20 09:23:26;;;;;;;2.67;0.95;;;7.80;99.90;;;;;;5016272;28;20037;-71
2023/10/20 09:25:51;;;;;;;2.27;1.20;;;7.80;99.90;;;;;;5023161;28;20057;-71
2023/10/20 09:28:17;;;;;;;2.40;1.40;;;7.80;99.90;;;;;;5025843;28;20065;-71
2023/10/20 09:30:47;;;;;;;3.03;1.52;;;7.80;99.90;;;;;;5018205;28;20042;-70
2023/10/20 09:33:13;;;;;;;3.45;1.10;;;7.80;99.90;;;;;;5017595;28;20120;-70
2023/10/20 09:35:41;;;;;;;2.45;1.10;;;7.70;99.90;;;;;;5016792;28;20120;-71
2023/10/20 09:38:11;;;;;;;2.70;1.20;;;7.70;99.90;;;;;;5021123;28;20064;-71
2023/10/20 09:40:41;;;;;;;2.03;0.80;;;7.70;99.90;;;;;;5021988;28;20373;-71
2023/10/20 09:43:22;;;;;;;2.33;1.15;;;7.70;99.90;;;;;;5017758;28;20045;-71
2023/10/20 09:45:52;;;;;;;2.67;1.20;;;7.70;99.90;;;;;;5017919;28;20041;-71
2023/10/20 09:48:19;;;;;;;2.55;0.95;;;7.70;99.90;;;;;;5018980;28;20050;-71
2023/10/20 09:50:47;;;;;;;2.30;0.90;;;7.70;99.90;;;;;;5016029;28;20052;-71
2023/10/20 09:53:16;;;;;;;2.17;0.93;;;7.70;99.90;;;;;;5022207;28;20037;-71
2023/10/20 09:55:47;;;;;;;1.98;0.80;;;7.70;99.90;;;;;;5015694;28;20049;-71
2023/10/20 09:58:24;;;;;;;1.40;0.80;;;7.70;99.90;;;;;;5021104;28;20030;-71
2023/10/20 10:00:51;;;;;;;1.05;0.70;;;7.70;99.90;;;;;;5021137;28;20754;-71
2023/10/20 10:03:27;;;;;;;1.35;0.70;;;7.60;99.90;;;;;;5017372;28;20052;-71
2023/10/20 10:05:53;;;;;;;2.47;1.13;;;7.70;99.90;;;;;;5010214;28;20530;-71
2023/10/20 10:08:20;;;;;;;1.87;0.70;;;7.70;99.90;;;;;;5017856;28;20284;-71
2023/10/20 10:10:46;;;;;;;3.25;1.00;;;7.60;99.90;;;;;;5019941;28;20135;-71
2023/10/20 10:13:11;;;;;;;1.37;0.77;;;7.60;99.90;;;;;;5012873;28;20486;-72
2023/10/20 10:15:46;;;;;;;1.00;0.50;;;7.60;99.90;;;;;;5020188;28;20045;-71
2023/10/20 10:18:15;;;;;;;3.33;0.90;;;7.70;99.90;;;;;;5012616;28;20071;-71
2023/10/20 10:20:47;;;;;;;1.40;0.65;;;7.60;99.90;;;;;;5021927;28;20502;-71
2023/10/20 10:23:16;;;;;;;2.00;1.05;;;7.60;99.90;;;;;;5014272;28;20053;-71
2023/10/20 10:25:44;;;;;;;1.55;0.68;;;7.60;99.90;;;;;;5018039;28;20045;-71
2023/10/20 10:28:14;;;;;;;1.02;0.52;;;7.60;99.90;;;;;;5017414;28;20042;-71
2023/10/20 10:30:41;;;;;;;1.15;0.60;;;7.60;99.90;;;;;;5016693;28;20409;-71
2023/10/20 10:33:11;;;;;;;1.85;0.60;;;7.60;99.90;;;;;;5017662;28;20057;-71
2023/10/20 10:35:38;;;;;;;1.35;0.60;;;7.60;99.90;;;;;;5017371;28;20291;-71
2023/10/20 10:38:08;;;;;;;1.25;0.60;;;7.50;99.90;;;;;;5014267;28;20121;-71
2023/10/20 10:40:34;;;;;;;0.98;0.40;;;7.50;99.90;;;;;;5019760;28;20088;-71
2023/10/20 10:43:00;;;;;;;1.05;0.52;;;7.50;99.90;;;;;;5000185;28;20130;-71
2023/10/20 10:45:27;;;;;;;2.17;0.30;;;7.50;99.90;;;;;;5014148;28;20139;-71
2023/10/20 10:48:07;;;;;;;1.73;0.80;;;7.50;99.90;;;;;;5012036;28;20049;-71
2023/10/20 10:50:39;;;;;;;1.05;0.50;;;7.50;99.90;;;;;;5017215;28;20037;-71
2023/10/20 10:53:05;;;;;;;0.60;0.40;;;7.50;99.90;;;;;;5021492;28;20115;-71
2023/10/20 10:55:31;;;;;;;2.07;0.70;;;7.50;99.90;;;;;;5020382;28;20068;-71
2023/10/20 10:58:00;;;;;;;2.03;0.38;;;7.50;99.90;;;;;;5012104;28;20071;-72
2023/10/20 11:00:27;;;;;;;6.20;2.20;;;7.40;99.90;;;;;;5015950;28;20045;-71
2023/10/20 11:02:56;;;;;;;1.77;0.80;;;7.40;99.90;;;;;;5017859;28;20049;-71
2023/10/20 11:05:22;;;;;;;2.05;0.50;;;7.40;99.90;;;;;;5016216;28;20517;-71
2023/10/20 11:07:59;;;;;;;0.95;0.35;;;7.40;99.90;;;;;;5014588;28;20506;-71
2023/10/20 11:10:28;;;;;;;0.57;0.40;;;7.40;99.90;;;;;;5018564;28;20120;-71
2023/10/20 11:12:58;;;;;;;0.88;0.52;;;7.40;99.90;;;;;;5017201;28;20106;-71
2023/10/20 11:15:30;;;;;;;1.30;0.43;;;7.30;99.90;;;;;;5016534;28;20038;-71
2023/10/20 11:18:00;;;;;;;1.20;0.30;;;7.40;99.90;;;;;;5014601;28;20060;-71
2023/10/20 11:20:27;;;;;;;0.52;0.30;;;7.30;99.90;;;;;;5015605;28;20132;-71
2023/10/20 11:22:53;;;;;;;;;;;7.30;99.90;;;;;;5021780;28;20041;-71
2023/10/20 11:25:20;;;;;;;0.73;0.28;;;7.30;99.90;;;;;;5013197;28;19927;-71
2023/10/20 11:27:53;;;;;;;0.80;0.25;;;7.30;99.90;;;;;;5010333;28;20037;-71
2023/10/20 11:30:34;;;;;;;1.42;0.32;;;7.30;99.90;;;;;;5015853;28;20046;-71
2023/10/20 11:33:00;;;;;;;1.40;0.40;;;7.30;99.90;;;;;;5009709;28;20049;-72
2023/10/20 11:35:26;;;;;;;1.02;0.30;;;7.30;99.90;;;;;;5022040;28;20041;-71
2023/10/20 11:38:00;;;;;;;0.75;0.30;;;7.30;99.90;;;;;;5022828;28;20041;-72
2023/10/20 11:40:26;;;;;;;0.57;0.30;;;7.30;99.90;;;;;;5020994;28;20204;-71
2023/10/20 11:42:52;;;;;;;0.70;0.27;;;7.30;99.90;;;;;;5016651;28;20181;-71
2023/10/20 11:45:18;;;;;;;2.17;0.80;;;7.30;99.90;;;;;;5019172;28;20310;-71
2023/10/20 11:47:44;;;;;;;0.88;0.45;;;7.30;99.90;;;;;;5014153;28;20100;-71
2023/10/20 11:50:11;;;;;;;0.90;0.50;;;7.30;99.90;;;;;;5017531;28;20171;-71
2023/10/20 11:52:40;;;;;;;0.50;0.20;;;7.40;99.90;;;;;;5015746;28;20143;-71
2023/10/20 11:55:10;;;;;;;1.15;0.30;;;7.40;99.90;;;;;;5008977;28;20567;-71
2023/10/20 11:57:40;;;;;;;0.80;0.40;;;7.40;99.90;;;;;;5014142;28;20049;-71
2023/10/20 12:00:09;;;;;;;1.05;0.40;;;7.40;99.90;;;;;;5015745;28;20061;-71
2023/10/20 12:02:36;;;;;;;0.43;0.30;;;7.40;99.90;;;;;;5011780;28;20367;-71
2023/10/20 12:05:02;;;;;;;;;;;7.40;99.90;;;;;;5007263;28;20034;-71
2023/10/20 12:07:28;;;;;;;0.60;0.30;;;7.30;99.90;;;;;;5018614;28;19917;-71
2023/10/20 12:09:53;;;;;;;3.60;0.90;;;7.30;99.90;;;;;;5016415;28;20498;-71
2023/10/20 12:12:19;;;;;;;1.43;0.60;;;7.30;99.90;;;;;;4994979;28;20045;-71
2023/10/20 12:14:45;;;;;;;0.80;0.38;;;7.30;99.90;;;;;;5011344;28;20391;-71
2023/10/20 12:17:11;;;;;;;1.35;0.47;;;7.30;99.90;;;;;;5012331;28;20053;-71
2023/10/20 12:19:38;;;;;;;1.65;0.65;;;7.30;99.90;;;;;;5022623;28;20438;-71
2023/10/20 12:22:04;;;;;;;0.98;0.63;;;7.30;99.90;;;;;;5022360;28;20072;-71
2023/10/20 12:24:30;;;;;;;1.00;0.40;;;7.30;99.90;;;;;;5005156;28;20037;-71
2023/10/20 12:26:56;;;;;;;6.25;0.57;;;7.30;99.90;;;;;;5016478;28;20556;-71
2023/10/20 12:29:22;;;;;;;0.75;0.40;;;7.30;99.90;;;;;;5013401;28;20215;-71
2023/10/20 12:31:49;;;;;;;0.80;0.38;;;7.30;99.90;;;;;;5013871;28;20053;-72
2023/10/20 12:34:14;;;;;;;1.45;0.47;;;7.30;99.90;;;;;;5014601;28;20053;-71
2023/10/20 12:36:42;;;;;;;0.47;0.40;;;7.30;99.90;;;;;;5015677;28;20041;-71
2023/10/20 12:39:09;;;;;;;0.45;0.25;;;7.30;99.90;;;;;;4990900;28;20222;-72
2023/10/20 12:41:35;;;;;;;0.70;0.40;;;7.30;99.90;;;;;;5019169;28;20280;-71
2023/10/20 12:44:02;;;;;;;0.28;0.20;;;7.20;99.90;;;;;;5003031;28;20099;-71
2023/10/20 12:46:28;;;;;;;1.00;0.40;;;7.20;99.90;;;;;;5020450;28;20052;-72
2023/10/20 12:48:54;;;;;;;0.45;0.20;;;7.30;99.90;;;;;;5020810;28;20379;-71
2023/10/20 12:51:19;;;;;;;0.73;0.40;;;7.30;99.90;;;;;;5019545;28;20052;-71
2023/10/20 12:53:45;;;;;;;0.80;0.37;;;7.30;99.90;;;;;;5020094;28;20088;-71
2023/10/20 12:56:11;;;;;;;1.00;0.40;;;7.30;99.90;;;;;;5020329;28;20175;-71
2023/10/20 12:58:37;;;;;;;0.83;0.30;;;7.30;99.90;;;;;;5020821;28;20130;-71
2023/10/20 13:01:03;;;;;;;1.25;0.50;;;7.20;99.90;;;;;;5018568;28;20042;-71
2023/10/20 13:03:29;;;;;;;0.88;0.40;;;7.30;99.90;;;;;;5023453;28;20045;-72
2023/10/20 13:05:55;;;;;;;1.30;0.40;;;7.20;99.90;;;;;;5023264;28;20414;-72
2023/10/20 13:08:21;;;;;;;1.55;0.50;;;7.20;99.90;;;;;;5024390;28;20045;-71
2023/10/20 13:10:47;;;;;;;;;;;7.20;99.90;;;;;;5024952;28;20098;-71
2023/10/20 13:13:14;;;;;;;1.30;0.52;;;7.20;99.90;;;;;;5020960;28;20275;-72
2023/10/20 13:15:40;;;;;;;4.88;0.50;;;7.20;99.90;;;;;;5024711;28;20041;-71
2023/10/20 13:18:05;;;;;;;1.67;0.88;;;7.20;99.90;;;;;;5022467;28;20049;-71
2023/10/20 13:20:31;;;;;;;0.73;0.37;;;7.20;99.90;;;;;;5023883;28;20512;-71
2023/10/20 13:22:56;;;;;;;0.77;0.30;;;7.20;99.90;;;;;;5018573;28;20165;-71
2023/10/20 13:25:27;;;;;;;1.27;0.20;;;7.20;99.90;;;;;;5017359;28;20079;-71
2023/10/20 13:27:52;;;;;;;0.65;0.30;;;7.20;99.90;;;;;;5024758;28;20049;-71
2023/10/20 13:30:19;;;;;;;0.50;0.30;;;7.20;99.90;;;;;;5022518;28;20497;-71
2023/10/20 13:32:44;;;;;;;0.25;0.20;;;7.20;99.90;;;;;;5019464;28;20030;-71
2023/10/20 13:35:10;;;;;;;0.60;0.40;;;7.20;99.90;;;;;;5010732;28;20054;-71
2023/10/20 13:37:37;;;;;;;3.03;0.40;;;7.20;99.90;;;;;;5021900;28;20048;-72